createdAt,value
2018-08-03T00:03:39.053Z,101596.09
2018-08-03T00:08:34.231Z,101593.02
2018-08-03T00:13:29.358Z,101588.56
2018-08-03T00:18:24.439Z,101586.86
2018-08-03T00:23:19.246Z,101588.31
2018-08-03T00:28:13.792Z,101592.14
2018-08-03T00:33:08.291Z,101590.92
2018-08-03T00:38:02.792Z,101584.11
2018-08-03T00:42:57.382Z,101587.81
2018-08-03T00:47:52.193Z,101588.43
2018-08-03T00:52:47.472Z,101593.94
2018-08-03T00:57:42.109Z,101592.69
2018-08-03T01:02:36.742Z,101588.39
2018-08-03T01:07:31.250Z,101593.55
2018-08-03T01:12:25.928Z,101598.56
2018-08-03T01:17:20.566Z,101592.57
2018-08-03T01:22:16.454Z,101591.65
2018-08-03T01:27:11.332Z,101601.34
2018-08-03T01:32:05.952Z,101592.58
2018-08-03T01:37:00.671Z,101590.45
2018-08-03T01:41:55.330Z,101588.95
2018-08-03T01:46:50.135Z,101588.36
2018-08-03T01:51:44.733Z,101585.69
2018-08-03T01:56:39.255Z,101590.00
2018-08-03T02:01:34.022Z,101592.44
2018-08-03T02:06:29.074Z,101590.33
2018-08-03T02:11:23.587Z,101592.95
2018-08-03T02:16:18.064Z,101591.47
2018-08-03T02:21:12.617Z,101586.17
2018-08-03T02:26:07.112Z,101582.20
2018-08-03T02:31:01.591Z,101579.56
2018-08-03T02:35:56.680Z,101581.34
2018-08-03T02:40:51.167Z,101580.78
2018-08-03T02:45:45.674Z,101581.36
2018-08-03T02:50:40.160Z,101590.90
2018-08-03T02:55:34.689Z,101599.91
2018-08-03T03:00:29.138Z,101603.19
2018-08-03T03:05:23.697Z,101606.17
2018-08-03T03:10:18.308Z,101604.73
2018-08-03T03:15:12.836Z,101607.52
2018-08-03T03:20:07.342Z,101608.78
2018-08-03T03:25:01.910Z,101608.72
2018-08-03T03:29:56.881Z,101603.47
2018-08-03T03:34:51.552Z,101603.03
2018-08-03T03:39:46.054Z,101614.59
2018-08-03T03:44:40.571Z,101613.53
2018-08-03T03:49:35.147Z,101609.01
2018-08-03T03:54:30.023Z,101610.16
2018-08-03T03:59:25.072Z,101610.44
2018-08-03T04:04:19.573Z,101612.41
2018-08-03T04:09:14.341Z,101610.09
2018-08-03T04:14:09.053Z,101610.78
2018-08-03T04:19:03.535Z,101609.15
2018-08-03T04:23:58.192Z,101609.87
2018-08-03T04:28:52.778Z,101613.53
2018-08-03T04:33:47.841Z,101613.34
2018-08-03T04:38:42.676Z,101617.16
2018-08-03T04:43:37.503Z,101617.02
2018-08-03T04:48:32.337Z,101615.53
2018-08-03T04:53:27.720Z,101612.87
2018-08-03T04:58:22.243Z,101622.11
2018-08-03T05:03:16.796Z,101620.83
2018-08-03T05:08:11.405Z,101624.27
2018-08-03T05:13:05.982Z,101623.51
2018-08-03T05:18:00.520Z,101628.47
2018-08-03T05:22:55.297Z,101625.80
2018-08-03T05:27:49.971Z,101626.55
2018-08-03T05:32:44.484Z,101630.62
2018-08-03T05:37:39.091Z,101627.25
2018-08-03T05:42:33.692Z,101621.30
2018-08-03T05:47:28.362Z,101623.22
2018-08-03T05:52:23.195Z,101625.36
2018-08-03T05:57:18.449Z,101641.31
2018-08-03T06:02:14.378Z,101641.48
2018-08-03T06:07:09.887Z,101644.28
2018-08-03T06:12:05.311Z,101639.87
2018-08-03T06:17:07.042Z,101644.63
2018-08-03T06:22:01.964Z,101643.09
2018-08-03T06:26:56.767Z,101650.22
2018-08-03T06:31:53.758Z,101644.70
2018-08-03T06:36:48.565Z,101641.20
2018-08-03T06:41:43.708Z,101643.80
2018-08-03T06:46:39.766Z,101641.91
2018-08-03T06:51:34.566Z,101647.86
2018-08-03T06:56:29.804Z,101653.67
2018-08-03T07:01:24.912Z,101657.70
2018-08-03T07:06:21.758Z,101657.59
2018-08-03T07:11:16.607Z,101651.48
2018-08-03T07:16:15.687Z,101647.03
2018-08-03T07:21:12.481Z,101639.27
2018-08-03T07:26:07.536Z,101637.84
2018-08-03T07:31:02.453Z,101640.17
2018-08-03T07:35:58.036Z,101639.82
2018-08-03T07:40:53.760Z,101638.98
2018-08-03T07:45:49.099Z,101647.30
2018-08-03T07:50:43.977Z,101648.79
2018-08-03T07:55:38.704Z,101649.92
2018-08-03T08:00:33.492Z,101641.23
2018-08-03T08:05:28.474Z,101641.23
2018-08-03T08:10:23.267Z,101634.63
2018-08-03T08:15:18.063Z,101632.84
2018-08-03T08:20:13.501Z,101626.37
2018-08-03T08:25:08.672Z,101630.40
2018-08-03T08:30:03.404Z,101625.45
2018-08-03T08:34:58.270Z,101615.38
2018-08-03T08:39:53.646Z,101614.43
2018-08-03T08:44:48.462Z,101607.88
2018-08-03T08:49:43.388Z,101607.75
2018-08-03T08:54:38.148Z,101602.01
2018-08-03T08:59:33.111Z,101591.60
2018-08-03T09:04:28.097Z,101589.56
2018-08-03T09:09:22.974Z,101587.10
2018-08-03T09:14:17.799Z,101579.95
2018-08-03T09:19:12.955Z,101581.20
2018-08-03T09:24:07.710Z,101578.47
2018-08-03T09:29:02.440Z,101576.42
2018-08-03T09:33:57.262Z,101566.73
2018-08-03T09:38:52.196Z,101566.46
2018-08-03T09:43:47.272Z,101557.70
2018-08-03T09:48:42.146Z,101550.27
2018-08-03T09:53:37.003Z,101543.52
2018-08-03T09:58:31.857Z,101529.62
2018-08-03T10:03:26.648Z,101518.95
2018-08-03T10:08:21.601Z,101510.20
2018-08-03T10:13:17.098Z,101492.45
2018-08-03T10:18:12.298Z,101491.14
2018-08-03T10:23:07.281Z,101489.25
2018-08-03T10:28:02.034Z,101481.21
2018-08-03T10:32:57.006Z,101475.56
2018-08-03T10:37:52.406Z,101471.22
2018-08-03T10:42:47.222Z,101468.19
2018-08-03T10:47:42.316Z,101466.55
2018-08-03T10:52:37.052Z,101452.91
2018-08-03T10:57:32.156Z,101449.37
2018-08-03T11:02:27.130Z,101450.84
2018-08-03T11:07:22.194Z,101455.90
2018-08-03T11:12:17.051Z,101449.78
2018-08-03T11:17:12.361Z,101445.74
2018-08-03T11:22:07.301Z,101438.47
2018-08-03T11:27:02.102Z,101438.23
2018-08-03T11:31:56.960Z,101444.67
2018-08-03T11:36:51.701Z,101432.06
2018-08-03T11:41:46.453Z,101425.45
2018-08-03T11:46:41.327Z,101428.92
2018-08-03T11:51:36.159Z,101424.17
2018-08-03T11:56:30.977Z,101417.23
2018-08-03T12:01:25.899Z,101410.79
2018-08-03T12:06:20.705Z,101402.50
2018-08-03T12:11:15.573Z,101398.43
2018-08-03T12:16:10.490Z,101402.00
2018-08-03T12:21:05.325Z,101371.00
2018-08-03T12:26:00.421Z,101379.58
2018-08-03T12:30:55.344Z,101375.17
2018-08-03T12:35:50.114Z,101376.23
2018-08-03T12:40:45.041Z,101363.79
2018-08-03T12:45:39.842Z,101365.19
2018-08-03T12:50:34.593Z,101354.84
2018-08-03T12:55:30.388Z,101351.61
2018-08-03T13:00:25.161Z,101343.92
2018-08-03T13:05:19.947Z,101337.25
2018-08-03T13:10:14.699Z,101340.86
2018-08-03T13:15:10.085Z,101333.91
2018-08-03T13:20:05.126Z,101329.71
2018-08-03T13:25:00.055Z,101321.59
2018-08-03T13:29:54.824Z,101316.77
2018-08-03T13:34:49.602Z,101308.09
2018-08-03T13:39:44.360Z,101300.84
2018-08-03T13:44:39.403Z,101297.53
2018-08-03T13:49:34.358Z,101288.73
2018-08-03T13:54:29.254Z,101278.69
2018-08-03T13:59:24.370Z,101272.76
2018-08-03T14:04:19.238Z,101268.91
2018-08-03T14:09:14.309Z,101259.44
2018-08-03T14:14:09.657Z,101265.54
2018-08-03T14:19:04.430Z,101253.16
2018-08-03T14:23:59.233Z,101257.90
2018-08-03T14:28:54.053Z,101245.48
2018-08-03T14:33:48.829Z,101234.66
2018-08-03T14:38:43.910Z,101235.20
2018-08-03T14:43:38.928Z,101226.55
2018-08-03T14:48:33.728Z,101232.05
2018-08-03T14:53:29.558Z,101223.16
2018-08-03T14:58:25.586Z,101226.27
2018-08-03T15:03:21.527Z,101225.04
2018-08-03T15:08:17.880Z,101215.62
2018-08-03T15:13:14.022Z,101212.90
2018-08-03T15:18:13.232Z,101205.11
2018-08-03T15:23:09.920Z,101199.76
2018-08-03T15:28:05.832Z,101198.58
2018-08-03T15:33:05.678Z,101193.26
2018-08-03T15:38:01.918Z,101187.84
2018-08-03T15:42:58.161Z,101190.88
2018-08-03T15:47:53.892Z,101189.36
2018-08-03T15:52:49.286Z,101183.84
2018-08-03T15:57:44.510Z,101185.90
2018-08-03T16:02:39.271Z,101181.95
2018-08-03T16:07:34.194Z,101175.06
2018-08-03T16:12:28.954Z,101174.45
2018-08-03T16:17:23.758Z,101168.91
2018-08-03T16:22:18.526Z,101174.42
2018-08-03T16:27:13.298Z,101169.88
2018-08-03T16:32:08.552Z,101154.22
2018-08-03T16:37:03.731Z,101157.17
2018-08-03T16:41:58.751Z,101150.00
2018-08-03T16:46:54.000Z,101151.16
2018-08-03T16:51:48.760Z,101146.29
2018-08-03T16:56:43.520Z,101150.00
2018-08-03T17:01:38.309Z,101143.27
2018-08-03T17:06:33.714Z,101142.23
2018-08-03T17:11:28.595Z,101142.39
2018-08-03T17:16:23.416Z,101145.74
2018-08-03T17:21:18.574Z,101145.92
2018-08-03T17:26:15.647Z,101144.72
2018-08-03T17:31:10.398Z,101151.76
2018-08-03T17:36:05.870Z,101153.34
2018-08-03T17:41:01.441Z,101144.77
2018-08-03T17:45:56.629Z,101150.11
2018-08-03T17:50:51.377Z,101146.95
2018-08-03T17:55:46.713Z,101142.44
2018-08-03T18:00:41.553Z,101147.30
2018-08-03T18:05:37.195Z,101153.30
2018-08-03T18:10:32.002Z,101154.69
2018-08-03T18:15:27.476Z,101158.91
2018-08-03T18:20:22.338Z,101161.22
2018-08-03T18:25:17.580Z,101157.22
2018-08-03T18:30:13.796Z,101163.61
2018-08-03T18:35:09.160Z,101158.94
2018-08-03T18:40:04.476Z,101161.77
2018-08-03T18:45:00.326Z,101161.09
2018-08-03T18:49:55.293Z,101164.91
2018-08-03T18:54:50.858Z,101170.05
2018-08-03T18:59:45.724Z,101173.34
2018-08-03T19:04:41.132Z,101164.52
2018-08-03T19:09:35.930Z,101170.22
2018-08-03T19:14:31.434Z,101173.00
2018-08-03T19:19:26.552Z,101175.84
2018-08-03T19:24:22.184Z,101181.48
2018-08-03T19:29:16.958Z,101187.48
2018-08-03T19:34:11.739Z,101197.44
2018-08-03T19:39:10.292Z,101214.83
2018-08-03T19:44:05.351Z,101213.41
2018-08-03T19:49:00.083Z,101222.09
2018-08-03T19:53:54.838Z,101225.20
2018-08-03T19:58:50.140Z,101233.77
2018-08-03T20:03:45.064Z,101233.69
2018-08-03T20:08:40.170Z,101233.50
2018-08-03T20:13:34.928Z,101236.73
2018-08-03T20:18:30.027Z,101228.39
2018-08-03T20:23:24.946Z,101231.38
2018-08-03T20:28:19.759Z,101224.74
2018-08-03T20:33:14.748Z,101227.53
2018-08-03T20:38:09.488Z,101219.59
2018-08-03T20:43:04.285Z,101232.53
2018-08-03T20:47:59.525Z,101241.11
2018-08-03T20:52:54.305Z,101242.96
2018-08-03T20:57:49.128Z,101240.87
2018-08-03T21:02:43.874Z,101248.99
2018-08-03T21:07:38.942Z,101252.39
2018-08-03T21:12:33.939Z,101255.05
2018-08-03T21:17:30.748Z,101251.05
2018-08-03T21:22:25.611Z,101252.14
2018-08-03T21:27:26.949Z,101254.98
2018-08-03T21:32:21.937Z,101264.29
2018-08-03T21:37:16.705Z,101250.78
2018-08-03T21:42:11.521Z,101251.48
2018-08-03T21:47:06.301Z,101248.48
2018-08-03T21:52:01.269Z,101244.08
2018-08-03T21:56:56.048Z,101248.94
2018-08-03T22:01:51.376Z,101248.59
2018-08-03T22:06:46.173Z,101250.03
2018-08-03T22:11:41.050Z,101240.45
2018-08-03T22:16:35.830Z,101242.41
2018-08-03T22:21:30.609Z,101243.18
2018-08-03T22:26:25.343Z,101238.31
2018-08-03T22:31:20.400Z,101233.94
2018-08-03T22:36:15.136Z,101228.41
2018-08-03T22:41:10.736Z,101227.68
2018-08-03T22:46:05.506Z,101219.30
2018-08-03T22:51:00.799Z,101220.05
2018-08-03T22:55:56.547Z,101219.33
2018-08-03T23:00:51.344Z,101229.31
2018-08-03T23:05:46.135Z,101224.86
2018-08-03T23:10:40.928Z,101223.95
2018-08-03T23:15:35.794Z,101225.53
2018-08-03T23:20:30.307Z,101219.30
2018-08-03T23:25:24.774Z,101221.58
2018-08-03T23:30:19.713Z,101217.73
2018-08-03T23:35:14.187Z,101221.46
2018-08-03T23:40:08.746Z,101217.19
2018-08-03T23:45:03.656Z,101211.38
2018-08-03T23:49:58.274Z,101211.33
2018-08-03T23:54:53.142Z,101205.02
2018-08-03T23:59:47.659Z,101207.23
